Time;durP1;ratioP1;P1;durP2;ratioP2;P2;SDS_P1;SDS_P2;PMS_P1;PMS_P2;Temp;Humidity;BMP_temperature;BMP_pressure;BME280_temperature;BME280_humidity;BME280_pressure;Samples;Min_cycle;Max_cycle;Signal;HPM_P1;HPM_P2
2022/11/10 00:03:02;;;;;;;10.63;2.72;;;11.70;79.80;;;;;;9175533;19;20011;-63
2022/11/10 00:06:25;;;;;;;16.33;3.20;;;11.70;79.90;;;;;;9175240;19;20078;-63
2022/11/10 00:09:47;;;;;;;14.75;3.45;;;11.70;79.90;;;;;;9172386;19;20499;-63
2022/11/10 00:13:11;;;;;;;14.75;3.33;;;11.60;79.90;;;;;;9175608;19;20373;-64
2022/11/10 00:20:10;;;;;;;10.05;2.88;;;11.60;79.90;;;;;;9174375;19;20030;-64
2022/11/10 00:23:33;;;;;;;14.97;3.07;;;11.60;80.00;;;;;;9174767;19;20096;-64
2022/11/10 00:26:56;;;;;;;14.82;4.53;;;11.50;79.90;;;;;;9174804;19;20474;-65
2022/11/10 00:30:20;;;;;;;14.23;4.00;;;11.50;80.00;;;;;;9176387;19;20028;-64
2022/11/10 00:33:43;;;;;;;15.45;3.10;;;11.50;80.10;;;;;;9180996;19;20038;-63
2022/11/10 00:37:06;;;;;;;19.88;3.40;;;11.50;80.10;;;;;;9181784;19;20014;-63
2022/11/10 00:40:28;;;;;;;9.75;3.10;;;11.50;80.20;;;;;;9182458;19;20015;-64
2022/11/10 00:43:50;;;;;;;17.25;3.70;;;11.40;80.10;;;;;;9182555;19;20094;-64
2022/11/10 00:47:14;;;;;;;14.43;2.97;;;11.40;80.10;;;;;;9181508;19;20023;-66
2022/11/10 00:50:37;;;;;;;15.93;3.75;;;11.40;80.20;;;;;;9181791;19;20022;-63
2022/11/10 00:53:59;;;;;;;11.15;2.88;;;11.40;80.20;;;;;;9176618;19;20026;-63
2022/11/10 00:57:21;;;;;;;14.68;4.07;;;11.40;80.20;;;;;;9178550;19;20026;-64
2022/11/10 01:00:44;;;;;;;16.20;4.15;;;11.40;80.30;;;;;;9181466;19;20031;-65
2022/11/10 01:04:08;;;;;;;13.20;3.83;;;11.30;80.30;;;;;;9179606;19;20509;-65
2022/11/10 01:07:30;;;;;;;14.57;3.67;;;11.30;80.30;;;;;;9180782;19;20927;-67
2022/11/10 01:10:53;;;;;;;13.77;3.03;;;11.30;80.30;;;;;;9181818;19;20025;-67
2022/11/10 01:14:15;;;;;;;14.00;3.30;;;11.30;80.40;;;;;;9182116;19;20408;-66
2022/11/10 01:17:37;;;;;;;14.68;3.85;;;11.20;80.40;;;;;;9177828;19;20015;-63
2022/11/10 01:21:02;;;;;;;15.32;3.55;;;11.20;80.40;;;;;;9180938;19;20026;-66
2022/11/10 01:24:24;;;;;;;13.60;3.55;;;11.20;80.40;;;;;;9179907;19;20010;-65
2022/11/10 01:27:46;;;;;;;15.05;3.90;;;11.20;80.40;;;;;;9181599;19;20640;-65
2022/11/10 01:31:10;;;;;;;11.68;3.40;;;11.20;80.50;;;;;;9181351;19;20094;-64
2022/11/10 01:34:33;;;;;;;;;;;11.20;80.60;;;;;;9181353;19;20451;-63
2022/11/10 01:37:57;;;;;;;10.95;3.05;;;11.20;80.60;;;;;;9180425;19;19947;-63
2022/11/10 01:41:20;;;;;;;14.80;3.80;;;11.10;80.40;;;;;;9180638;19;20019;-63
2022/11/10 01:44:43;;;;;;;18.15;4.82;;;11.10;80.50;;;;;;9180956;19;20018;-63
2022/11/10 01:48:08;;;;;;;12.77;3.10;;;11.10;80.60;;;;;;9180364;19;20074;-63
2022/11/10 01:51:36;;;;;;;15.30;3.97;;;11.10;80.70;;;;;;9178740;19;20050;-63
2022/11/10 01:55:00;;;;;;;23.30;3.67;;;11.10;80.70;;;;;;9173024;19;20014;-63
2022/11/10 01:58:27;;;;;;;19.98;4.45;;;11.10;80.80;;;;;;9178446;19;20370;-64
2022/11/10 02:01:51;;;;;;;17.38;4.85;;;11.10;80.80;;;;;;9177711;19;20018;-66
2022/11/10 02:05:13;;;;;;;17.23;3.53;;;11.10;80.80;;;;;;9180181;19;20032;-64
2022/11/10 02:08:36;;;;;;;15.73;3.25;;;11.10;80.90;;;;;;9178244;19;21019;-62
2022/11/10 02:12:00;;;;;;;17.38;3.70;;;11.10;80.80;;;;;;9180480;19;20019;-66
2022/11/10 02:15:23;;;;;;;13.48;3.75;;;11.10;80.90;;;;;;9179342;19;20038;-65
2022/11/10 02:18:45;;;;;;;20.13;4.15;;;11.10;80.90;;;;;;9177613;19;20022;-65
2022/11/10 02:22:09;;;;;;;15.60;4.97;;;11.00;80.90;;;;;;9177869;19;20018;-64
2022/11/10 02:25:33;;;;;;;;;;;11.00;80.90;;;;;;9180600;19;20010;-63
2022/11/10 02:28:55;;;;;;;17.25;4.57;;;11.00;80.90;;;;;;9179149;19;20376;-63
2022/11/10 02:32:17;;;;;;;20.50;4.80;;;11.00;80.70;;;;;;9179556;19;20054;-64
2022/11/10 02:35:40;;;;;;;18.55;4.00;;;11.00;80.90;;;;;;9178459;19;20381;-63
2022/11/10 02:39:05;;;;;;;24.05;4.38;;;10.90;80.90;;;;;;9178437;19;20014;-64
2022/11/10 02:42:27;;;;;;;27.25;4.65;;;10.90;81.00;;;;;;9179000;19;20014;-65
2022/11/10 02:45:50;;;;;;;19.05;4.28;;;10.90;81.00;;;;;;9177167;19;20035;-63
2022/11/10 02:49:12;;;;;;;20.80;3.67;;;10.90;81.00;;;;;;9179029;19;20017;-65
2022/11/10 02:52:34;;;;;;;20.13;3.67;;;10.90;81.00;;;;;;9175590;19;20018;-66
2022/11/10 02:55:59;;;;;;;17.13;4.07;;;10.90;81.10;;;;;;9174805;19;20349;-65
2022/11/10 02:59:21;;;;;;;18.67;3.88;;;10.90;81.10;;;;;;9174936;19;20010;-62
2022/11/10 03:02:43;;;;;;;18.73;4.43;;;10.80;81.10;;;;;;9178624;19;20018;-65
2022/11/10 03:06:06;;;;;;;19.60;3.58;;;10.80;81.10;;;;;;9176632;19;20090;-65
2022/11/10 03:09:28;;;;;;;16.25;3.63;;;10.80;81.20;;;;;;9178086;19;20010;-64
2022/11/10 03:12:55;;;;;;;18.42;3.83;;;10.80;81.20;;;;;;9177686;19;20034;-66
2022/11/10 03:16:18;;;;;;;14.02;4.03;;;10.80;81.30;;;;;;9175630;19;20023;-63
2022/11/10 03:19:41;;;;;;;20.75;3.63;;;10.90;81.40;;;;;;9178010;19;20018;-64
2022/11/10 03:23:03;;;;;;;13.27;3.88;;;10.80;81.30;;;;;;9177962;19;20029;-65
2022/11/10 03:26:26;;;;;;;16.90;4.05;;;10.80;81.40;;;;;;9177178;19;20014;-63
2022/11/10 03:29:50;;;;;;;22.25;4.22;;;10.80;81.40;;;;;;9174841;19;20086;-67
2022/11/10 03:33:13;;;;;;;15.90;3.95;;;10.80;81.40;;;;;;9176765;19;20021;-63
2022/11/10 03:36:35;;;;;;;19.75;3.80;;;10.80;81.40;;;;;;9174666;19;20098;-64
2022/11/10 03:39:57;;;;;;;13.27;4.18;;;10.80;81.50;;;;;;9177435;19;20018;-65
2022/11/10 03:43:20;;;;;;;22.63;4.47;;;10.80;81.50;;;;;;9177181;19;20082;-66
2022/11/10 03:46:45;;;;;;;19.20;3.50;;;10.80;81.50;;;;;;9176657;19;20018;-65
2022/11/10 03:50:13;;;;;;;16.55;4.07;;;10.80;81.60;;;;;;9176030;19;20018;-66
2022/11/10 03:53:35;;;;;;;14.52;3.90;;;10.80;81.60;;;;;;9170582;19;20032;-64
2022/11/10 03:56:58;;;;;;;25.60;4.18;;;10.80;81.60;;;;;;9173220;19;20107;-65
2022/11/10 04:00:22;;;;;;;18.10;3.45;;;10.80;81.60;;;;;;9175802;19;20455;-63
2022/11/10 04:03:46;;;;;;;;;;;10.80;81.60;;;;;;9178775;19;20018;-66
2022/11/10 04:10:55;;;;;;;23.48;4.43;;;10.80;81.50;;;;;;9182874;19;20025;-64
2022/11/10 04:17:53;;;;;;;15.57;4.85;;;10.80;81.60;;;;;;9181533;19;20022;-64
2022/11/10 04:21:17;;;;;;;21.42;4.85;;;10.80;81.70;;;;;;9183110;19;20078;-65
2022/11/10 04:24:39;;;;;;;19.40;4.68;;;10.80;81.80;;;;;;9183468;19;20137;-66
2022/11/10 04:28:01;;;;;;;18.50;4.60;;;10.80;81.80;;;;;;9182640;19;20023;-64
2022/11/10 04:31:25;;;;;;;21.85;4.88;;;10.80;81.80;;;;;;9182969;19;20022;-64
2022/11/10 04:34:48;;;;;;;27.30;5.40;;;10.80;81.90;;;;;;9182945;19;20452;-64
2022/11/10 04:38:12;;;;;;;25.60;5.18;;;10.80;81.90;;;;;;9182644;19;20018;-64
2022/11/10 04:41:34;;;;;;;20.58;5.53;;;10.80;81.90;;;;;;9180914;19;20018;-66
2022/11/10 04:44:56;;;;;;;18.50;5.68;;;10.80;81.90;;;;;;9181341;19;20482;-64
2022/11/10 04:48:18;;;;;;;21.40;4.45;;;10.80;82.00;;;;;;9182510;19;20341;-64
2022/11/10 04:51:41;;;;;;;21.75;4.63;;;10.80;82.00;;;;;;9178505;19;20082;-63
2022/11/10 04:55:06;;;;;;;16.52;4.40;;;10.90;82.10;;;;;;9173902;19;20021;-66
2022/11/10 04:58:28;;;;;;;21.77;4.95;;;10.90;82.20;;;;;;9182318;19;20098;-62
2022/11/10 05:01:50;;;;;;;23.65;5.28;;;10.90;82.10;;;;;;9181423;19;20019;-65
2022/11/10 05:05:13;;;;;;;24.75;5.35;;;10.90;82.20;;;;;;9182773;19;20046;-63
2022/11/10 05:08:35;;;;;;;16.52;4.88;;;10.90;82.30;;;;;;9179924;19;20014;-62
2022/11/10 05:11:59;;;;;;;27.02;4.85;;;10.90;82.20;;;;;;9179832;19;20018;-63
2022/11/10 05:15:22;;;;;;;20.85;4.60;;;10.90;82.90;;;;;;9180645;19;20019;-65
2022/11/10 05:18:44;;;;;;;27.10;4.68;;;10.90;82.30;;;;;;9182084;19;20019;-64
2022/11/10 05:22:07;;;;;;;27.23;5.80;;;10.90;82.30;;;;;;9181304;19;20026;-63
2022/11/10 05:25:30;;;;;;;17.88;4.40;;;10.90;82.30;;;;;;9179551;19;20011;-67
2022/11/10 05:28:54;;;;;;;14.82;4.90;;;10.90;82.30;;;;;;9180577;19;20011;-62
2022/11/10 05:32:16;;;;;;;20.08;4.55;;;10.90;82.30;;;;;;9181869;19;20022;-65
2022/11/10 05:35:39;;;;;;;25.98;5.18;;;11.00;82.40;;;;;;9179272;19;20018;-65
2022/11/10 05:39:02;;;;;;;22.02;4.30;;;11.00;82.40;;;;;;9181434;19;20010;-64
2022/11/10 05:42:26;;;;;;;15.50;4.15;;;11.00;82.50;;;;;;9180704;19;20019;-63
2022/11/10 05:45:50;;;;;;;22.00;4.45;;;11.00;82.40;;;;;;9181051;19;20024;-64
2022/11/10 05:49:12;;;;;;;16.17;2.72;;;10.90;82.40;;;;;;9179032;19;20018;-63
2022/11/10 05:52:35;;;;;;;18.85;5.20;;;11.00;82.40;;;;;;9179990;19;20026;-62
2022/11/10 05:55:57;;;;;;;22.20;5.00;;;11.00;82.50;;;;;;9177269;19;20519;-65
2022/11/10 05:59:19;;;;;;;16.67;3.75;;;10.90;82.40;;;;;;9180722;19;20015;-65
2022/11/10 06:02:44;;;;;;;19.42;4.38;;;10.90;82.40;;;;;;9177513;19;20018;-64
2022/11/10 06:06:07;;;;;;;13.52;3.90;;;10.90;82.40;;;;;;9180845;19;20026;-64
2022/11/10 06:09:29;;;;;;;19.17;3.65;;;10.90;82.50;;;;;;9179658;19;20358;-65
2022/11/10 06:12:51;;;;;;;21.90;4.28;;;10.90;82.50;;;;;;9178762;19;20380;-64
2022/11/10 06:16:14;;;;;;;20.83;4.45;;;10.90;82.50;;;;;;9179477;19;20038;-64
2022/11/10 06:19:38;;;;;;;15.55;4.00;;;10.90;82.50;;;;;;9178290;19;20022;-64
2022/11/10 06:23:02;;;;;;;16.77;4.13;;;10.90;82.50;;;;;;9177779;19;20066;-66
2022/11/10 06:26:25;;;;;;;18.33;4.40;;;10.90;82.60;;;;;;9178971;19;20366;-65
2022/11/10 06:29:47;;;;;;;17.95;3.78;;;10.90;82.60;;;;;;9175560;19;20018;-64
2022/11/10 06:33:10;;;;;;;21.73;4.90;;;10.90;82.60;;;;;;9178655;19;20035;-64
2022/11/10 06:36:34;;;;;;;17.25;5.40;;;10.90;82.60;;;;;;9176816;19;20451;-66
2022/11/10 06:39:56;;;;;;;21.50;4.53;;;10.90;82.70;;;;;;9179087;19;20037;-65
2022/11/10 06:43:19;;;;;;;12.20;3.50;;;10.90;82.70;;;;;;9173646;19;20026;-65
2022/11/10 06:46:41;;;;;;;18.38;4.00;;;10.80;82.60;;;;;;9177655;19;20010;-65
2022/11/10 06:50:04;;;;;;;19.98;3.58;;;10.80;82.60;;;;;;9177264;19;20015;-65
2022/11/10 06:53:29;;;;;;;16.67;4.40;;;10.80;82.60;;;;;;9172410;19;20367;-64
2022/11/10 06:56:52;;;;;;;20.00;3.85;;;10.80;82.60;;;;;;9175735;19;20014;-64
2022/11/10 07:00:16;;;;;;;18.40;3.33;;;10.80;82.60;;;;;;9177108;19;20017;-64
2022/11/10 07:03:39;;;;;;;20.90;4.38;;;10.70;82.60;;;;;;9175161;19;20019;-64
2022/11/10 07:07:21;;;;;;;29.27;5.35;;;10.70;82.60;;;;;;9169423;19;20014;-65
2022/11/10 07:10:51;;;;;;;17.48;4.40;;;10.70;82.60;;;;;;9166531;19;20018;-66
2022/11/10 07:14:14;;;;;;;13.43;3.60;;;10.70;82.60;;;;;;9162999;19;20025;-66
2022/11/10 07:17:41;;;;;;;18.67;4.57;;;10.60;82.60;;;;;;9161441;19;20022;-67
2022/11/10 07:21:04;;;;;;;18.33;3.25;;;10.70;82.70;;;;;;9163641;19;20014;-66
2022/11/10 07:24:29;;;;;;;19.58;3.90;;;10.60;82.70;;;;;;9164477;19;20082;-66
2022/11/10 07:27:56;;;;;;;17.40;3.92;;;10.60;82.70;;;;;;9164451;19;20014;-65
2022/11/10 07:31:18;;;;;;;17.77;4.43;;;10.60;82.80;;;;;;9167538;19;20014;-65
2022/11/10 07:34:40;;;;;;;24.83;3.42;;;10.60;82.80;;;;;;9168856;19;20027;-64
2022/11/10 07:38:05;;;;;;;21.52;3.88;;;10.60;82.80;;;;;;9166429;19;20019;-65
2022/11/10 07:41:27;;;;;;;24.30;5.35;;;10.60;82.90;;;;;;9169976;19;20014;-65
2022/11/10 07:44:51;;;;;;;26.75;4.20;;;10.60;82.90;;;;;;9168755;19;20014;-65
2022/11/10 07:48:15;;;;;;;15.80;3.60;;;10.60;82.90;;;;;;9171307;19;20018;-64
2022/11/10 07:51:37;;;;;;;19.67;3.87;;;10.60;83.00;;;;;;9170569;19;20052;-65
2022/11/10 07:54:59;;;;;;;16.60;3.72;;;10.60;83.10;;;;;;9157796;19;20046;-64
2022/11/10 07:58:22;;;;;;;16.00;3.65;;;10.60;83.00;;;;;;9166221;19;20041;-66
2022/11/10 08:01:46;;;;;;;24.70;4.55;;;10.60;83.10;;;;;;9166033;19;20050;-65
2022/11/10 08:05:10;;;;;;;23.15;3.80;;;10.60;83.10;;;;;;9172458;19;20384;-64
2022/11/10 08:08:32;;;;;;;23.25;4.93;;;10.60;83.20;;;;;;9170081;19;20026;-65
2022/11/10 08:11:55;;;;;;;14.82;3.30;;;10.70;83.20;;;;;;9169021;19;20022;-65
2022/11/10 08:15:17;;;;;;;12.55;3.53;;;10.70;83.20;;;;;;9167605;19;20574;-66
2022/11/10 08:18:41;;;;;;;20.90;4.13;;;10.70;83.30;;;;;;9169901;19;20621;-64
2022/11/10 08:22:04;;;;;;;18.80;3.65;;;10.70;83.20;;;;;;9170028;19;20018;-65
2022/11/10 08:25:27;;;;;;;25.88;4.13;;;10.80;83.30;;;;;;9173348;19;20506;-64
2022/11/10 08:28:56;;;;;;;12.80;3.20;;;10.80;83.30;;;;;;9166257;19;20829;-66
2022/11/10 08:32:20;;;;;;;13.90;3.72;;;10.80;83.30;;;;;;9165213;19;20029;-66
2022/11/10 08:35:45;;;;;;;27.42;4.80;;;10.80;83.30;;;;;;9163438;19;20022;-65
2022/11/10 08:39:08;;;;;;;27.42;3.78;;;10.90;83.40;;;;;;9168807;19;20018;-65
2022/11/10 08:42:31;;;;;;;23.50;3.60;;;10.90;83.40;;;;;;9166342;19;20022;-65
2022/11/10 08:45:55;;;;;;;14.10;3.47;;;10.90;83.50;;;;;;9165486;19;20735;-66
2022/11/10 08:49:18;;;;;;;24.08;3.83;;;11.00;83.50;;;;;;9167056;19;20578;-67
2022/11/10 08:52:42;;;;;;;23.17;3.85;;;11.00;83.60;;;;;;9172028;19;20038;-65
2022/11/10 08:56:04;;;;;;;;;;;11.10;83.60;;;;;;9173690;19;20032;-67
2022/11/10 08:59:27;;;;;;;12.27;3.08;;;11.10;83.50;;;;;;9178290;19;19918;-64
2022/11/10 09:02:50;;;;;;;28.05;4.25;;;11.20;83.40;;;;;;9175262;19;20018;-62
2022/11/10 09:06:12;;;;;;;20.92;3.65;;;11.20;83.50;;;;;;9174528;19;20102;-65
2022/11/10 09:09:36;;;;;;;23.80;4.45;;;11.30;83.60;;;;;;9175954;19;20023;-65
2022/11/10 09:13:01;;;;;;;17.60;4.40;;;11.30;83.60;;;;;;9178912;19;20039;-64
2022/11/10 09:16:23;;;;;;;23.98;4.32;;;11.40;83.70;;;;;;9179413;19;20023;-65
2022/11/10 09:19:45;;;;;;;17.50;3.53;;;11.40;83.60;;;;;;9172071;19;20046;-65
2022/11/10 09:23:08;;;;;;;18.30;3.83;;;11.50;83.70;;;;;;9173812;19;20045;-65
2022/11/10 09:26:33;;;;;;;24.17;4.97;;;11.50;83.70;;;;;;9174279;19;20424;-65
2022/11/10 09:29:55;;;;;;;26.55;4.07;;;11.60;83.80;;;;;;9174923;19;20011;-63
2022/11/10 09:33:18;;;;;;;26.25;4.18;;;11.70;83.80;;;;;;9168307;19;20026;-64
2022/11/10 09:36:41;;;;;;;23.83;5.38;;;11.70;83.70;;;;;;9169297;19;20014;-65
2022/11/10 09:40:05;;;;;;;18.20;3.47;;;11.80;83.70;;;;;;9173794;19;20462;-66
2022/11/10 09:43:42;;;;;;;22.20;4.18;;;11.90;83.80;;;;;;9176684;19;20054;-65
2022/11/10 09:47:10;;;;;;;20.00;3.72;;;11.90;84.50;;;;;;9173367;19;20030;-65
2022/11/10 09:50:42;;;;;;;24.52;4.30;;;12.10;83.90;;;;;;9171485;19;20018;-65
2022/11/10 09:54:07;;;;;;;24.95;4.75;;;12.10;83.90;;;;;;9174685;19;20392;-65
2022/11/10 09:57:30;;;;;;;20.50;4.85;;;12.30;83.90;;;;;;9176384;19;20011;-65
2022/11/10 10:01:04;;;;;;;26.63;3.63;;;12.40;84.00;;;;;;9179438;19;20021;-65
2022/11/10 10:04:41;;;;;;;21.80;3.58;;;12.50;84.00;;;;;;9177772;19;20033;-65
2022/11/10 10:08:20;;;;;;;25.73;4.00;;;12.70;83.90;;;;;;9176329;19;20028;-65
2022/11/10 10:11:51;;;;;;;21.23;4.80;;;12.80;83.90;;;;;;9174766;19;20056;-65
2022/11/10 10:15:22;;;;;;;24.85;4.03;;;13.00;83.80;;;;;;9169147;19;20023;-64
2022/11/10 10:18:59;;;;;;;22.53;3.30;;;13.10;83.70;;;;;;9169363;19;20006;-66
2022/11/10 10:22:30;;;;;;;;;;;13.20;83.60;;;;;;9172849;19;20018;-66
2022/11/10 10:25:54;;;;;;;17.20;3.00;;;13.40;83.50;;;;;;9173893;19;19926;-66
2022/11/10 10:29:20;;;;;;;22.05;3.53;;;13.50;83.40;;;;;;9169587;19;20057;-67
2022/11/10 10:32:43;;;;;;;21.30;3.47;;;13.60;83.40;;;;;;9169749;19;20023;-66
2022/11/10 10:36:10;;;;;;;21.70;3.42;;;13.70;83.30;;;;;;9167236;19;20103;-64
2022/11/10 10:39:37;;;;;;;18.42;3.22;;;13.80;83.90;;;;;;9169727;19;20040;-67
2022/11/10 10:43:00;;;;;;;25.17;3.88;;;13.90;83.20;;;;;;9170669;19;20019;-65
2022/11/10 10:46:25;;;;;;;27.58;4.10;;;14.00;83.10;;;;;;9170049;19;20026;-65
2022/11/10 10:49:49;;;;;;;32.35;4.15;;;14.10;83.00;;;;;;9170487;19;20023;-63
2022/11/10 10:53:18;;;;;;;22.90;3.83;;;14.20;83.00;;;;;;9164401;19;20042;-64
2022/11/10 10:56:40;;;;;;;21.40;3.05;;;14.30;83.60;;;;;;9170008;19;20030;-66
2022/11/10 11:00:20;;;;;;;24.10;3.67;;;14.40;82.80;;;;;;9175499;19;20010;-64
2022/11/10 11:03:45;;;;;;;21.70;3.42;;;14.50;82.70;;;;;;9171289;19;20492;-65
2022/11/10 11:07:20;;;;;;;19.05;3.67;;;14.60;82.60;;;;;;9176201;19;20026;-67
2022/11/10 11:10:46;;;;;;;15.25;2.88;;;14.70;82.50;;;;;;9170798;19;20019;-64
2022/11/10 11:14:19;;;;;;;28.58;3.63;;;14.80;82.40;;;;;;9175711;19;20392;-63
2022/11/10 11:17:54;;;;;;;15.30;3.35;;;14.90;82.40;;;;;;9171603;19;20020;-65
2022/11/10 11:21:21;;;;;;;;;;;15.00;82.30;;;;;;9175335;19;20035;-64
2022/11/10 11:24:48;;;;;;;21.02;3.95;;;15.00;82.20;;;;;;9172039;19;20002;-66
2022/11/10 11:28:23;;;;;;;12.27;3.08;;;15.10;82.10;;;;;;9175745;19;20066;-63
2022/11/10 11:31:59;;;;;;;21.25;3.58;;;15.10;82.00;;;;;;9175350;19;20088;-66
2022/11/10 11:35:32;;;;;;;19.00;3.67;;;15.20;82.00;;;;;;9170630;19;20018;-66
2022/11/10 11:39:04;;;;;;;16.42;3.00;;;15.20;81.90;;;;;;9165218;19;20018;-66
2022/11/10 11:42:40;;;;;;;15.20;3.17;;;15.20;81.80;;;;;;9170811;19;20007;-66
2022/11/10 11:46:13;;;;;;;18.25;3.05;;;15.20;81.80;;;;;;9162691;19;20479;-65
2022/11/10 11:49:52;;;;;;;14.27;3.50;;;15.20;81.70;;;;;;9164166;19;20018;-65
2022/11/10 11:53:29;;;;;;;23.08;2.75;;;15.20;81.60;;;;;;9160828;19;20026;-66
2022/11/10 11:56:52;;;;;;;21.15;3.50;;;15.20;81.60;;;;;;9166216;19;20026;-66
2022/11/10 12:00:17;;;;;;;19.65;3.15;;;15.20;81.60;;;;;;9168760;19;20723;-65
2022/11/10 12:04:05;;;;;;;17.95;2.85;;;15.20;81.60;;;;;;9169243;19;20046;-64
2022/11/10 12:07:41;;;;;;;23.05;3.25;;;15.20;81.50;;;;;;9175139;19;20019;-63
2022/11/10 12:11:12;;;;;;;14.25;2.25;;;15.20;81.50;;;;;;9175604;19;20483;-66
2022/11/10 12:14:46;;;;;;;14.65;2.72;;;15.20;81.50;;;;;;9172164;19;20460;-65
2022/11/10 12:18:19;;;;;;;21.05;3.30;;;15.20;82.10;;;;;;9172007;19;20475;-65
2022/11/10 12:21:52;;;;;;;17.20;2.92;;;15.20;81.40;;;;;;9171416;19;20010;-65
2022/11/10 12:25:24;;;;;;;25.67;3.25;;;15.20;81.40;;;;;;9173620;19;20023;-65
2022/11/10 12:28:50;;;;;;;17.92;3.60;;;15.20;82.00;;;;;;9182471;19;20057;-68
2022/11/10 12:32:18;;;;;;;18.95;2.83;;;15.20;81.30;;;;;;9179402;19;20019;-64
2022/11/10 12:35:44;;;;;;;32.97;5.38;;;15.20;81.30;;;;;;9183240;19;20018;-66
2022/11/10 12:39:18;;;;;;;22.52;4.43;;;15.20;81.30;;;;;;9178817;19;20045;-65
2022/11/10 12:42:42;;;;;;;17.25;3.33;;;15.20;81.20;;;;;;9182666;19;20014;-65
2022/11/10 12:46:09;;;;;;;17.48;2.67;;;15.30;81.30;;;;;;9183260;19;20011;-66
2022/11/10 12:49:36;;;;;;;16.63;3.05;;;15.30;81.20;;;;;;9182591;19;20018;-65
2022/11/10 12:53:01;;;;;;;11.13;2.47;;;15.20;81.00;;;;;;9177941;19;20090;-65
2022/11/10 12:56:33;;;;;;;21.63;3.55;;;15.20;81.00;;;;;;9182799;19;20066;-63
2022/11/10 12:59:58;;;;;;;22.15;2.63;;;15.20;81.00;;;;;;9181517;19;20018;-63
2022/11/10 13:03:29;;;;;;;15.52;2.30;;;15.20;80.90;;;;;;9182218;19;20014;-67
2022/11/10 13:06:56;;;;;;;22.30;2.83;;;15.20;80.90;;;;;;9182060;19;20018;-67
2022/11/10 13:10:24;;;;;;;18.73;3.13;;;15.20;80.80;;;;;;9180484;19;20025;-64
2022/11/10 13:13:54;;;;;;;21.20;2.70;;;15.30;80.90;;;;;;9181385;19;20015;-65
2022/11/10 13:18:00;;;;;;;13.55;3.60;;;15.20;80.80;;;;;;9179826;19;20033;-64
2022/11/10 13:21:52;;;;;;;12.65;2.80;;;15.30;80.80;;;;;;9181327;19;20019;-63
2022/11/10 13:25:44;;;;;;;20.33;3.08;;;15.30;80.80;;;;;;9181360;19;20081;-65
2022/11/10 13:29:21;;;;;;;14.50;2.45;;;15.30;80.70;;;;;;9181872;19;20006;-64
2022/11/10 13:32:43;;;;;;;20.98;2.90;;;15.30;80.60;;;;;;9181089;19;20014;-64
2022/11/10 13:36:09;;;;;;;17.08;2.42;;;15.40;80.70;;;;;;9178483;19;20613;-64
2022/11/10 13:39:33;;;;;;;10.38;2.58;;;15.40;80.80;;;;;;9181145;19;20041;-63
2022/11/10 13:43:20;;;;;;;16.58;2.78;;;15.40;80.60;;;;;;9179799;19;20046;-66
2022/11/10 13:47:05;;;;;;;19.90;3.85;;;15.40;80.50;;;;;;9179449;19;20015;-65
2022/11/10 13:50:36;;;;;;;14.93;3.38;;;15.40;80.30;;;;;;9177620;19;20022;-66
2022/11/10 13:54:14;;;;;;;12.85;2.90;;;15.40;80.30;;;;;;9173303;19;20021;-64
2022/11/10 13:57:38;;;;;;;17.85;2.08;;;15.40;80.20;;;;;;9179269;19;20974;-63
2022/11/10 14:01:25;;;;;;;15.85;3.42;;;15.40;80.20;;;;;;9179412;19;20026;-68
2022/11/10 14:04:49;;;;;;;17.75;2.53;;;15.40;80.10;;;;;;9172153;19;20015;-67
2022/11/10 14:08:15;;;;;;;21.77;3.42;;;15.40;80.20;;;;;;9169810;19;20478;-67
2022/11/10 14:11:43;;;;;;;16.58;2.28;;;15.30;80.10;;;;;;9176405;19;20023;-65
2022/11/10 14:15:17;;;;;;;23.50;3.40;;;15.30;80.10;;;;;;9171692;19;20051;-63
2022/11/10 14:18:42;;;;;;;19.15;2.28;;;15.30;80.00;;;;;;9170507;19;20039;-66
2022/11/10 14:22:15;;;;;;;10.65;2.42;;;15.30;80.00;;;;;;9178389;19;20044;-65
2022/11/10 14:25:41;;;;;;;15.15;2.13;;;15.20;79.90;;;;;;9179164;19;20018;-65
2022/11/10 14:29:32;;;;;;;16.88;2.70;;;15.20;79.90;;;;;;9179522;19;20029;-64
2022/11/10 14:33:01;;;;;;;17.10;2.40;;;15.20;79.90;;;;;;9179083;19;20015;-65
2022/11/10 14:36:24;;;;;;;11.82;2.92;;;15.20;79.90;;;;;;9177388;19;20018;-65
2022/11/10 14:39:48;;;;;;;16.02;2.42;;;15.20;79.90;;;;;;9179343;19;20014;-65
2022/11/10 14:43:26;;;;;;;18.10;3.03;;;15.20;79.90;;;;;;9178695;19;20078;-62
2022/11/10 14:46:51;;;;;;;15.38;2.72;;;15.10;79.80;;;;;;9172792;19;20409;-67
2022/11/10 14:50:21;;;;;;;13.45;3.08;;;15.10;79.90;;;;;;9171428;19;20018;-65
2022/11/10 14:53:48;;;;;;;15.02;2.92;;;15.10;79.70;;;;;;9172127;19;20026;-65
2022/11/10 14:57:19;;;;;;;21.73;3.78;;;15.10;79.80;;;;;;9177315;19;20018;-66
2022/11/10 15:00:44;;;;;;;20.45;3.53;;;15.10;79.70;;;;;;9179113;19;20015;-65
2022/11/10 15:04:09;;;;;;;12.18;2.30;;;15.00;79.70;;;;;;9176203;19;20085;-66
2022/11/10 15:07:31;;;;;;;15.15;2.50;;;15.00;79.70;;;;;;9173987;19;20015;-65
2022/11/10 15:10:55;;;;;;;12.43;2.03;;;15.00;79.70;;;;;;9169783;19;20018;-67
2022/11/10 15:14:39;;;;;;;12.93;1.92;;;15.00;79.70;;;;;;9174979;19;20030;-65
2022/11/10 15:18:01;;;;;;;17.17;2.65;;;14.90;79.50;;;;;;9170628;19;20027;-64
2022/11/10 15:21:28;;;;;;;18.55;2.40;;;14.90;79.50;;;;;;9175637;19;20014;-68
2022/11/10 15:24:53;;;;;;;16.00;2.53;;;14.90;79.50;;;;;;9175908;19;20018;-66
2022/11/10 15:28:28;;;;;;;14.57;3.10;;;14.90;79.50;;;;;;9176464;19;20048;-65
2022/11/10 15:31:53;;;;;;;17.52;2.70;;;14.80;79.40;;;;;;9177800;19;20022;-65
2022/11/10 15:35:27;;;;;;;15.10;2.60;;;14.80;79.40;;;;;;9175276;19;20029;-67
2022/11/10 15:39:03;;;;;;;13.32;2.00;;;14.70;79.30;;;;;;9174653;19;20011;-64
2022/11/10 15:42:25;;;;;;;15.77;2.38;;;14.70;79.30;;;;;;9178174;19;20367;-65
2022/11/10 15:45:51;;;;;;;11.98;2.17;;;14.70;79.40;;;;;;9177583;19;20022;-65
2022/11/10 15:49:24;;;;;;;11.10;2.05;;;14.60;79.30;;;;;;9177068;19;20014;-64
2022/11/10 15:52:46;;;;;;;12.35;2.25;;;14.60;79.30;;;;;;9175495;19;20010;-65
2022/11/10 15:56:09;;;;;;;13.57;2.28;;;14.60;79.30;;;;;;9175525;19;20006;-65
2022/11/10 15:59:31;;;;;;;8.73;1.80;;;14.50;79.30;;;;;;9173569;19;20037;-64
2022/11/10 16:02:53;;;;;;;8.60;1.40;;;14.40;79.20;;;;;;9184398;19;20488;-66
2022/11/10 16:06:18;;;;;;;15.77;1.98;;;14.40;79.30;;;;;;9181740;19;20338;-66
2022/11/10 16:09:40;;;;;;;14.68;2.92;;;14.40;79.30;;;;;;9181568;19;20022;-64
2022/11/10 16:13:03;;;;;;;13.43;2.05;;;14.30;79.30;;;;;;9171936;19;20022;-64
2022/11/10 16:16:26;;;;;;;9.43;1.95;;;14.30;79.30;;;;;;9176155;19;20018;-65
2022/11/10 16:19:48;;;;;;;9.27;2.33;;;14.20;79.30;;;;;;9169006;19;20039;-65
2022/11/10 16:23:13;;;;;;;15.23;2.40;;;14.20;79.30;;;;;;9168912;19;20025;-65
2022/11/10 16:26:36;;;;;;;16.05;2.30;;;14.10;79.30;;;;;;9171354;19;20010;-66
2022/11/10 16:29:58;;;;;;;18.77;3.30;;;14.10;79.30;;;;;;9170146;19;20039;-64
2022/11/10 16:33:23;;;;;;;9.10;2.67;;;14.00;79.30;;;;;;9170798;19;20035;-67
2022/11/10 16:36:45;;;;;;;;;;;14.00;79.30;;;;;;9166265;19;20041;-65
2022/11/10 16:40:15;;;;;;;9.52;2.55;;;13.90;79.30;;;;;;9170347;19;19927;-65
2022/11/10 16:43:38;;;;;;;11.13;2.50;;;13.90;79.30;;;;;;9167509;19;20043;-65
2022/11/10 16:47:00;;;;;;;15.00;2.63;;;13.80;79.20;;;;;;9169065;19;20376;-66
2022/11/10 16:50:31;;;;;;;18.85;2.63;;;13.70;79.20;;;;;;9174028;19;20074;-63
2022/11/10 16:53:54;;;;;;;9.25;2.88;;;13.70;79.30;;;;;;9167896;19;20018;-65
2022/11/10 16:57:19;;;;;;;18.55;2.55;;;13.60;79.30;;;;;;9177057;19;20022;-64
2022/11/10 17:00:42;;;;;;;7.90;1.90;;;13.60;79.30;;;;;;9173025;19;20375;-63
2022/11/10 17:04:08;;;;;;;9.57;2.03;;;13.50;79.30;;;;;;9172962;19;20363;-64
2022/11/10 17:07:31;;;;;;;7.40;2.20;;;13.50;79.40;;;;;;9174501;19;20018;-64
2022/11/10 17:10:55;;;;;;;17.30;3.22;;;13.40;79.40;;;;;;9171288;19;20022;-64
2022/11/10 17:14:19;;;;;;;15.13;2.45;;;13.40;79.40;;;;;;9171515;19;20018;-64
2022/11/10 17:17:44;;;;;;;9.35;2.25;;;13.40;79.40;;;;;;9169697;19;20022;-68
2022/11/10 17:21:07;;;;;;;7.65;1.83;;;13.30;79.40;;;;;;9166986;19;20027;-64
2022/11/10 17:24:29;;;;;;;7.25;2.20;;;13.20;79.40;;;;;;9169104;19;20029;-67
2022/11/10 17:27:51;;;;;;;12.50;3.05;;;13.20;79.50;;;;;;9168625;19;20089;-65
2022/11/10 17:31:16;;;;;;;10.27;1.80;;;13.20;79.50;;;;;;9169335;19;20043;-63
2022/11/10 17:34:38;;;;;;;9.52;2.42;;;13.10;79.50;;;;;;9174990;19;20614;-64
2022/11/10 17:38:01;;;;;;;10.15;1.60;;;13.10;79.60;;;;;;9171668;19;20015;-65
2022/11/10 17:41:23;;;;;;;10.93;2.20;;;13.00;79.50;;;;;;9172337;19;20086;-64
2022/11/10 17:44:46;;;;;;;15.48;3.13;;;13.00;79.60;;;;;;9166465;19;20015;-64
2022/11/10 17:48:10;;;;;;;13.05;2.13;;;12.90;79.50;;;;;;9173761;19;20014;-64
2022/11/10 17:51:33;;;;;;;;;;;12.90;79.60;;;;;;9172534;19;20090;-64
2022/11/10 17:54:55;;;;;;;6.93;2.03;;;12.80;79.60;;;;;;9167112;19;20276;-63